Terminal Aerodrome Forecast
Issued by NWS Riverton, WY

Home | Current Version | Previous Version | Text Only | Print | Product List | Glossary On
Versions: 1 2 3 4 5 6 7 8 9 10 11 12 13
000
FTUS45 KRIW 230500
TAFRIW
TAF
KRIW 230524Z 2306/2406 30014G22KT P6SM SCT100
     FM231100 30011KT P6SM SCT100
     FM231500 27008KT P6SM SCT070
     FM231900 VRB04KT P6SM FEW070
     FM240200 29008KT P6SM SKC=

USA.gov is the U.S. government's official web portal to all federal, state and local government web resources and services.